createdAt,value
2023-01-07T00:01:40.422Z,17.02
2023-01-07T00:04:12.329Z,18.63
2023-01-07T00:06:43.406Z,17.35
2023-01-07T00:09:18.641Z,16.98
2023-01-07T00:11:46.435Z,17.58
2023-01-07T00:14:14.887Z,19.15
2023-01-07T00:16:43.052Z,20.13
2023-01-07T00:19:15.138Z,19.27
2023-01-07T00:21:43.608Z,19.88
2023-01-07T00:24:12.267Z,17.50
2023-01-07T00:26:41.087Z,16.67
2023-01-07T00:29:09.642Z,16.70
2023-01-07T00:31:40.258Z,16.83
2023-01-07T00:34:09.608Z,17.95
2023-01-07T00:36:42.682Z,18.05
2023-01-07T00:39:19.504Z,18.88
2023-01-07T00:42:08.692Z,18.92
2023-01-07T00:44:38.042Z,22.52
2023-01-07T00:47:05.827Z,22.83
2023-01-07T00:49:33.461Z,18.77
2023-01-07T00:52:01.061Z,14.93
2023-01-07T00:54:28.484Z,15.43
2023-01-07T00:56:56.129Z,14.40
2023-01-07T00:59:23.461Z,14.85
2023-01-07T01:01:51.237Z,14.68
2023-01-07T01:04:18.726Z,14.82
2023-01-07T01:06:46.609Z,16.42
2023-01-07T01:09:14.035Z,15.57
2023-01-07T01:11:42.284Z,21.45
2023-01-07T01:14:11.903Z,18.25
2023-01-07T01:16:39.725Z,16.92
2023-01-07T01:19:07.036Z,16.65
2023-01-07T01:21:34.681Z,14.10
2023-01-07T01:24:01.929Z,14.88
2023-01-07T01:26:29.559Z,14.63
2023-01-07T01:28:57.548Z,15.93
2023-01-07T01:31:25.574Z,15.63
2023-01-07T01:33:57.438Z,18.50
2023-01-07T01:36:25.349Z,18.02
2023-01-07T01:38:52.881Z,20.25
2023-01-07T01:41:20.671Z,22.45
2023-01-07T01:43:48.206Z,16.27
2023-01-07T01:46:28.375Z,17.98
2023-01-07T01:49:26.779Z,16.58
2023-01-07T01:52:08.680Z,16.55
2023-01-07T01:54:36.206Z,16.73
2023-01-07T01:57:09.056Z,17.95
2023-01-07T01:59:42.224Z,21.50
2023-01-07T02:02:10.313Z,23.77
2023-01-07T02:04:38.604Z,21.00
2023-01-07T02:07:15.153Z,21.88
2023-01-07T02:09:42.503Z,20.13
2023-01-07T02:12:16.118Z,18.35
2023-01-07T02:15:17.643Z,18.95
2023-01-07T02:18:17.024Z,17.20
2023-01-07T02:21:09.255Z,16.75
2023-01-07T02:24:30.250Z,15.95
2023-01-07T02:27:42.777Z,15.27
2023-01-07T02:30:19.803Z,14.75
2023-01-07T02:33:20.668Z,14.38
2023-01-07T02:36:32.606Z,15.20
2023-01-07T02:39:07.565Z,13.95
2023-01-07T02:42:08.822Z,15.07
2023-01-07T02:44:52.139Z,12.95
2023-01-07T02:47:34.362Z,11.93
2023-01-07T02:50:02.192Z,12.85
2023-01-07T02:52:33.914Z,13.68
2023-01-07T02:55:17.963Z,13.27
2023-01-07T02:58:15.416Z,13.45
2023-01-07T03:01:22.287Z,11.75
2023-01-07T03:04:32.805Z,13.40
2023-01-07T03:07:56.361Z,13.15
2023-01-07T03:10:39.374Z,11.70
2023-01-07T03:13:22.976Z,15.15
2023-01-07T03:16:05.959Z,13.70
2023-01-07T03:18:44.364Z,14.77
2023-01-07T03:21:18.023Z,16.70
2023-01-07T03:23:52.809Z,17.00
2023-01-07T03:26:27.057Z,17.20
2023-01-07T03:28:58.266Z,17.25
2023-01-07T03:31:28.718Z,19.92
2023-01-07T03:34:12.450Z,18.67
2023-01-07T03:36:49.773Z,17.83
2023-01-07T03:39:19.926Z,17.83
2023-01-07T03:42:09.306Z,17.25
2023-01-07T03:44:37.199Z,16.35
2023-01-07T03:47:06.021Z,16.00
2023-01-07T03:49:36.966Z,18.02
2023-01-07T03:52:04.883Z,18.50
2023-01-07T03:54:32.309Z,19.42
2023-01-07T03:57:00.094Z,20.08
2023-01-07T03:59:27.451Z,18.05
2023-01-07T04:01:55.149Z,20.58
2023-01-07T04:04:22.698Z,20.60
2023-01-07T04:06:50.259Z,20.42
2023-01-07T04:09:22.037Z,24.85
2023-01-07T04:11:49.645Z,24.15
2023-01-07T04:14:17.039Z,23.88
2023-01-07T04:16:44.704Z,22.88
2023-01-07T04:19:12.142Z,24.00
2023-01-07T04:21:39.761Z,23.38
2023-01-07T04:24:07.823Z,26.75
2023-01-07T04:26:35.706Z,24.13
2023-01-07T04:29:03.031Z,28.10
2023-01-07T04:31:30.713Z,25.45
2023-01-07T04:33:58.211Z,26.83
2023-01-07T04:36:26.023Z,25.20
2023-01-07T04:38:53.419Z,23.65
2023-01-07T04:41:21.278Z,22.58
2023-01-07T04:43:48.717Z,22.38
2023-01-07T04:46:16.448Z,25.98
2023-01-07T04:48:43.844Z,23.88
2023-01-07T04:51:11.458Z,23.77
2023-01-07T04:53:38.819Z,25.48
2023-01-07T04:56:06.992Z,25.80
2023-01-07T04:58:34.733Z,25.40
2023-01-07T05:01:07.182Z,27.13
2023-01-07T05:03:34.818Z,28.38
2023-01-07T05:06:03.304Z,26.55
2023-01-07T05:08:30.816Z,26.45
2023-01-07T05:10:58.563Z,27.20
2023-01-07T05:13:25.956Z,25.67
2023-01-07T05:15:53.815Z,24.98
2023-01-07T05:18:21.097Z,24.77
2023-01-07T05:20:48.750Z,24.27
2023-01-07T05:23:16.061Z,23.85
2023-01-07T05:25:43.715Z,25.60
2023-01-07T05:28:12.343Z,23.52
2023-01-07T05:30:40.367Z,23.77
2023-01-07T05:33:08.111Z,24.42
2023-01-07T05:35:36.445Z,23.38
2023-01-07T05:38:04.701Z,23.25
2023-01-07T05:40:32.408Z,23.13
2023-01-07T05:42:59.681Z,21.70
2023-01-07T05:45:27.344Z,21.10
2023-01-07T05:47:54.630Z,20.52
2023-01-07T05:50:22.295Z,21.70
2023-01-07T05:52:52.153Z,21.60
2023-01-07T05:55:19.825Z,21.40
2023-01-07T05:57:47.198Z,23.83
2023-01-07T06:00:15.583Z,22.45
2023-01-07T06:02:43.056Z,19.10
2023-01-07T06:05:11.297Z,21.25
2023-01-07T06:07:39.107Z,20.02
2023-01-07T06:10:07.329Z,20.60
2023-01-07T06:12:34.632Z,19.67
2023-01-07T06:15:02.418Z,20.20
2023-01-07T06:17:29.816Z,19.00
2023-01-07T06:19:57.474Z,19.60
2023-01-07T06:22:24.817Z,18.67
2023-01-07T06:24:52.490Z,18.90
2023-01-07T06:27:19.813Z,17.13
2023-01-07T06:29:47.441Z,18.75
2023-01-07T06:32:14.738Z,21.50
2023-01-07T06:34:42.325Z,19.55
2023-01-07T06:37:10.403Z,19.40
2023-01-07T06:39:37.972Z,19.23
2023-01-07T06:42:05.521Z,18.65
2023-01-07T06:44:33.220Z,22.17
2023-01-07T06:47:00.653Z,23.08
2023-01-07T06:49:28.304Z,25.33
2023-01-07T06:51:55.611Z,27.23
2023-01-07T06:54:23.241Z,28.73
2023-01-07T06:56:50.513Z,27.20
2023-01-07T06:59:18.120Z,29.83
2023-01-07T07:01:46.686Z,30.23
2023-01-07T07:04:14.491Z,29.10
2023-01-07T07:06:41.777Z,29.00
2023-01-07T07:09:09.516Z,26.10
2023-01-07T07:11:36.954Z,27.65
2023-01-07T07:14:06.442Z,28.77
2023-01-07T07:16:35.974Z,26.95
2023-01-07T07:19:03.643Z,26.15
2023-01-07T07:21:31.057Z,27.17
2023-01-07T07:24:00.642Z,27.77
2023-01-07T07:26:27.955Z,27.55
2023-01-07T07:28:55.557Z,25.42
2023-01-07T07:31:23.026Z,24.20
2023-01-07T07:33:50.757Z,24.20
2023-01-07T07:36:18.092Z,24.00
2023-01-07T07:38:45.715Z,25.15
2023-01-07T07:41:13.408Z,25.15
2023-01-07T07:43:41.131Z,27.58
2023-01-07T07:46:08.794Z,23.30
2023-01-07T07:48:36.494Z,24.92
2023-01-07T07:51:04.089Z,24.20
2023-01-07T07:53:32.524Z,26.23
2023-01-07T07:56:00.055Z,24.73
2023-01-07T07:58:27.885Z,28.38
2023-01-07T08:00:55.391Z,27.58
2023-01-07T08:03:24.070Z,29.20
2023-01-07T08:05:51.631Z,27.63
2023-01-07T08:08:19.336Z,30.35
2023-01-07T08:10:46.792Z,30.70
2023-01-07T08:13:14.509Z,26.95
2023-01-07T08:15:41.820Z,27.77
2023-01-07T08:18:10.561Z,25.88
2023-01-07T08:20:39.116Z,25.30
2023-01-07T08:23:09.199Z,25.30
2023-01-07T08:25:36.813Z,23.00
2023-01-07T08:28:05.063Z,24.23
2023-01-07T08:30:32.816Z,23.95
2023-01-07T08:33:03.469Z,23.67
2023-01-07T08:35:30.845Z,24.45
2023-01-07T08:38:08.021Z,24.77
2023-01-07T08:40:37.537Z,25.42
2023-01-07T08:43:08.580Z,23.75
2023-01-07T08:45:36.657Z,24.90
2023-01-07T08:48:05.315Z,25.23
2023-01-07T08:50:34.282Z,24.73
2023-01-07T08:53:01.985Z,25.52
2023-01-07T08:55:29.350Z,24.38
2023-01-07T08:57:57.256Z,23.75
2023-01-07T09:00:25.646Z,21.75
2023-01-07T09:02:53.329Z,19.77
2023-01-07T09:05:20.780Z,21.08
2023-01-07T09:07:53.510Z,21.73
2023-01-07T09:10:21.530Z,20.55
2023-01-07T09:12:50.057Z,20.00
2023-01-07T09:15:17.889Z,19.85
2023-01-07T09:17:45.902Z,19.40
2023-01-07T09:20:13.750Z,18.67
2023-01-07T09:22:41.454Z,19.13
2023-01-07T09:25:09.864Z,17.65
2023-01-07T09:27:38.585Z,14.73
2023-01-07T09:30:08.138Z,14.90
2023-01-07T09:32:35.876Z,16.13
2023-01-07T09:35:04.403Z,15.35
2023-01-07T09:37:32.427Z,15.77
2023-01-07T09:40:01.303Z,13.30
2023-01-07T09:42:37.688Z,13.88
2023-01-07T09:45:27.467Z,12.25
2023-01-07T09:48:01.298Z,10.13
2023-01-07T09:50:39.636Z,9.40
2023-01-07T09:53:21.060Z,10.02
2023-01-07T09:56:11.294Z,9.15
2023-01-07T09:58:44.594Z,10.50
2023-01-07T10:01:29.214Z,9.15
2023-01-07T10:03:59.933Z,10.48
2023-01-07T10:07:11.024Z,9.23
2023-01-07T10:10:05.698Z,9.75
2023-01-07T10:13:00.587Z,9.45
2023-01-07T10:16:15.870Z,9.50
2023-01-07T10:19:12.454Z,10.25
2023-01-07T10:22:16.487Z,10.40
2023-01-07T10:24:53.036Z,11.55
2023-01-07T10:27:35.673Z,10.50
2023-01-07T10:30:12.159Z,11.40
2023-01-07T10:32:40.389Z,10.82
2023-01-07T10:35:19.265Z,10.02
2023-01-07T10:37:47.428Z,11.52
2023-01-07T10:40:39.065Z,10.10
2023-01-07T10:43:43.726Z,9.93
2023-01-07T10:46:35.561Z,9.40
2023-01-07T10:49:45.152Z,7.22
2023-01-07T10:52:38.519Z,7.10
2023-01-07T10:55:29.446Z,6.75
2023-01-07T10:57:57.085Z,6.30
2023-01-07T11:00:26.175Z,6.35
2023-01-07T11:02:58.842Z,6.30
2023-01-07T11:05:37.530Z,5.65
2023-01-07T11:08:22.807Z,4.93
2023-01-07T11:10:51.147Z,6.15
2023-01-07T11:13:33.223Z,5.53
2023-01-07T11:16:17.887Z,6.40
2023-01-07T11:19:09.786Z,6.30
2023-01-07T11:21:48.812Z,6.47
2023-01-07T11:24:35.872Z,6.03
2023-01-07T11:27:19.095Z,5.65
2023-01-07T11:30:10.936Z,5.28
2023-01-07T11:32:41.002Z,5.40
2023-01-07T11:35:23.845Z,6.32
2023-01-07T11:37:51.836Z,6.15
2023-01-07T11:40:28.367Z,5.82
2023-01-07T11:42:58.621Z,6.15
2023-01-07T11:45:35.493Z,6.13
2023-01-07T11:48:09.986Z,4.80
2023-01-07T11:50:59.624Z,7.43
2023-01-07T11:53:49.989Z,5.43
2023-01-07T11:56:20.193Z,5.70
2023-01-07T11:58:51.833Z,5.20
2023-01-07T12:01:24.373Z,5.38
2023-01-07T12:03:52.180Z,5.40
2023-01-07T12:06:20.495Z,5.40
2023-01-07T12:09:25.876Z,5.15
2023-01-07T12:11:57.918Z,5.70
2023-01-07T12:14:28.631Z,5.20
2023-01-07T12:17:10.187Z,4.60
2023-01-07T12:19:51.731Z,5.30
2023-01-07T12:23:09.339Z,4.70
2023-01-07T12:26:01.301Z,4.97
2023-01-07T12:29:07.515Z,4.88
2023-01-07T12:32:15.671Z,4.47
2023-01-07T12:35:14.999Z,4.88
2023-01-07T12:38:34.166Z,4.47
2023-01-07T12:41:11.811Z,4.85
2023-01-07T12:44:03.062Z,5.07
2023-01-07T12:46:43.697Z,5.68
2023-01-07T12:49:21.852Z,4.85
2023-01-07T12:52:27.645Z,5.00
2023-01-07T12:55:04.635Z,5.13
2023-01-07T12:57:38.967Z,4.45
2023-01-07T13:00:32.008Z,5.50
2023-01-07T13:03:19.132Z,6.20
2023-01-07T13:06:00.051Z,5.55
2023-01-07T13:08:54.816Z,6.43
2023-01-07T13:11:52.700Z,6.30
2023-01-07T13:14:32.171Z,5.88
2023-01-07T13:17:21.487Z,4.93
2023-01-07T13:19:48.872Z,4.82
2023-01-07T13:22:56.600Z,4.88
2023-01-07T13:25:53.138Z,5.45
2023-01-07T13:29:05.243Z,4.90
2023-01-07T13:32:23.157Z,5.47
2023-01-07T13:35:05.381Z,4.72
2023-01-07T13:37:55.195Z,4.00
2023-01-07T13:41:02.800Z,4.32
2023-01-07T13:44:18.185Z,4.40
2023-01-07T13:46:47.953Z,3.83
2023-01-07T13:49:30.076Z,4.00
2023-01-07T13:52:22.095Z,4.00
2023-01-07T13:54:49.524Z,4.57
2023-01-07T13:57:39.579Z,4.55
2023-01-07T14:00:45.724Z,4.60
2023-01-07T14:03:28.422Z,4.60
2023-01-07T14:06:20.786Z,4.90
2023-01-07T14:09:05.688Z,5.35
2023-01-07T14:11:33.058Z,6.32
2023-01-07T14:14:38.656Z,6.40
2023-01-07T14:17:33.180Z,6.82
2023-01-07T14:20:25.797Z,7.00
2023-01-07T14:23:31.809Z,6.57
2023-01-07T14:26:22.861Z,6.70
2023-01-07T14:29:19.626Z,7.22
2023-01-07T14:31:47.671Z,7.28
2023-01-07T14:34:26.869Z,6.60
2023-01-07T14:37:05.099Z,6.90
2023-01-07T14:39:37.961Z,6.80
2023-01-07T14:42:21.066Z,6.30
2023-01-07T14:44:50.932Z,7.00
2023-01-07T14:47:43.561Z,7.30
2023-01-07T14:50:47.237Z,7.35
2023-01-07T14:53:51.129Z,7.65
2023-01-07T14:56:43.807Z,9.68
2023-01-07T14:59:46.246Z,11.27
2023-01-07T15:02:59.217Z,10.70
2023-01-07T15:05:26.914Z,14.68
2023-01-07T15:08:23.189Z,15.02
2023-01-07T15:11:14.107Z,17.20
2023-01-07T15:14:10.441Z,17.17
2023-01-07T15:16:39.277Z,15.48
2023-01-07T15:19:09.657Z,13.02
2023-01-07T15:21:51.992Z,12.48
2023-01-07T15:24:37.704Z,13.70
2023-01-07T15:27:33.681Z,12.77
2023-01-07T15:30:21.075Z,11.43
2023-01-07T15:33:02.958Z,10.43
2023-01-07T15:35:44.955Z,10.80
2023-01-07T15:38:35.042Z,10.00
2023-01-07T15:41:02.885Z,12.27
2023-01-07T15:43:31.891Z,13.90
2023-01-07T15:46:06.413Z,12.20
2023-01-07T15:48:34.394Z,11.93
2023-01-07T15:51:01.778Z,11.75
2023-01-07T15:53:30.547Z,12.10
2023-01-07T15:56:15.006Z,10.23
2023-01-07T15:58:51.180Z,12.27
2023-01-07T16:01:23.388Z,12.23
2023-01-07T16:03:56.815Z,9.80
2023-01-07T16:06:34.965Z,10.43
2023-01-07T16:09:18.647Z,10.60
2023-01-07T16:11:46.249Z,10.40
2023-01-07T16:14:26.801Z,12.35
2023-01-07T16:17:27.437Z,10.18
2023-01-07T16:20:29.828Z,8.65
2023-01-07T16:23:24.283Z,8.02
2023-01-07T16:26:13.358Z,9.07
2023-01-07T16:28:49.831Z,9.70
2023-01-07T16:31:22.783Z,9.90
2023-01-07T16:33:55.916Z,10.82
2023-01-07T16:36:30.979Z,11.73
2023-01-07T16:39:07.728Z,13.63
2023-01-07T16:41:35.632Z,13.52
2023-01-07T16:44:03.411Z,14.85
2023-01-07T16:46:43.009Z,15.27
2023-01-07T16:49:22.370Z,16.40
2023-01-07T16:52:14.195Z,17.30
2023-01-07T16:54:44.767Z,19.35
2023-01-07T16:57:12.395Z,19.55
2023-01-07T16:59:53.695Z,22.27
2023-01-07T17:02:53.876Z,22.27
2023-01-07T17:05:28.324Z,24.05
2023-01-07T17:08:07.068Z,24.45
2023-01-07T17:10:38.833Z,24.58
2023-01-07T17:13:15.818Z,23.08
2023-01-07T17:15:44.168Z,22.10
2023-01-07T17:18:11.723Z,21.40
2023-01-07T17:20:49.086Z,21.80
2023-01-07T17:23:28.535Z,22.67
2023-01-07T17:26:02.861Z,20.75
2023-01-07T17:28:45.862Z,20.80
2023-01-07T17:31:13.337Z,24.33
2023-01-07T17:33:42.580Z,21.85
2023-01-07T17:36:25.335Z,23.08
2023-01-07T17:38:53.857Z,23.98
2023-01-07T17:41:42.005Z,23.55
2023-01-07T17:44:13.003Z,25.60
2023-01-07T17:46:41.592Z,24.25
2023-01-07T17:49:11.631Z,23.52
2023-01-07T17:51:48.650Z,25.33
2023-01-07T17:54:24.220Z,23.48
2023-01-07T17:56:52.642Z,28.55
2023-01-07T17:59:23.483Z,31.50
2023-01-07T18:01:55.161Z,31.02
2023-01-07T18:04:23.268Z,29.27
2023-01-07T18:06:50.588Z,29.88
2023-01-07T18:09:18.187Z,27.83
2023-01-07T18:12:05.658Z,32.55
2023-01-07T18:14:33.432Z,32.08
2023-01-07T18:17:00.879Z,31.48
2023-01-07T18:19:28.595Z,32.72
2023-01-07T18:21:55.986Z,32.63
2023-01-07T18:24:23.726Z,33.17
2023-01-07T18:26:51.138Z,27.30
2023-01-07T18:29:18.776Z,27.40
2023-01-07T18:31:46.528Z,32.45
2023-01-07T18:34:15.985Z,32.83
2023-01-07T18:36:43.727Z,38.25
2023-01-07T18:39:19.408Z,30.20
2023-01-07T18:41:50.709Z,34.03
2023-01-07T18:44:19.904Z,36.45
2023-01-07T18:46:47.531Z,33.28
2023-01-07T18:49:15.605Z,28.17
2023-01-07T18:51:44.984Z,35.60
2023-01-07T18:54:12.680Z,42.30
2023-01-07T18:56:40.799Z,36.83
2023-01-07T18:59:08.585Z,38.65
2023-01-07T19:01:35.980Z,41.70
2023-01-07T19:04:05.214Z,40.72
2023-01-07T19:06:33.217Z,44.58
2023-01-07T19:09:00.984Z,46.25
2023-01-07T19:11:28.443Z,45.38
2023-01-07T19:13:56.219Z,45.38
2023-01-07T19:16:23.762Z,42.10
2023-01-07T19:18:53.216Z,45.72
2023-01-07T19:21:21.548Z,43.25
2023-01-07T19:23:49.373Z,44.00
2023-01-07T19:26:16.979Z,43.50
2023-01-07T19:28:44.821Z,41.75
2023-01-07T19:31:12.685Z,41.88
2023-01-07T19:33:40.831Z,42.58
2023-01-07T19:36:12.514Z,48.55
2023-01-07T19:38:43.589Z,45.45
2023-01-07T19:41:15.071Z,45.70
2023-01-07T19:43:43.497Z,46.97
2023-01-07T19:46:13.103Z,48.10
2023-01-07T19:48:41.627Z,48.45
2023-01-07T19:51:10.656Z,47.10
2023-01-07T19:53:39.644Z,45.03
2023-01-07T19:56:12.729Z,49.13
2023-01-07T19:58:42.139Z,51.00
2023-01-07T20:01:14.615Z,50.35
2023-01-07T20:03:43.701Z,47.03
2023-01-07T20:06:24.990Z,54.42
2023-01-07T20:08:55.222Z,51.70
2023-01-07T20:11:24.118Z,49.10
2023-01-07T20:13:51.858Z,52.95
2023-01-07T20:16:23.985Z,49.75
2023-01-07T20:18:54.961Z,48.90
2023-01-07T20:21:26.367Z,50.50
2023-01-07T20:23:54.689Z,49.92
2023-01-07T20:26:26.365Z,50.65
2023-01-07T20:28:55.488Z,49.15
2023-01-07T20:31:25.332Z,47.03
2023-01-07T20:33:55.920Z,49.17
2023-01-07T20:36:27.720Z,46.65
2023-01-07T20:38:56.916Z,48.90
2023-01-07T20:41:27.507Z,44.00
2023-01-07T20:44:01.813Z,45.30
2023-01-07T20:46:30.818Z,42.78
2023-01-07T20:48:59.244Z,44.50
2023-01-07T20:51:27.588Z,42.72
2023-01-07T20:53:55.484Z,40.25
2023-01-07T20:56:24.734Z,43.97
2023-01-07T20:58:52.782Z,41.00
2023-01-07T21:01:21.908Z,38.10
2023-01-07T21:03:50.078Z,41.80
2023-01-07T21:06:19.761Z,38.65
2023-01-07T21:08:49.570Z,39.55
2023-01-07T21:11:20.801Z,38.30
2023-01-07T21:13:50.401Z,38.55
2023-01-07T21:16:19.011Z,35.83
2023-01-07T21:18:47.211Z,36.03
2023-01-07T21:21:23.729Z,35.97
2023-01-07T21:23:53.524Z,37.83
2023-01-07T21:26:22.217Z,34.97
2023-01-07T21:28:56.072Z,32.35
2023-01-07T21:31:25.661Z,35.35
2023-01-07T21:33:58.351Z,37.03
2023-01-07T21:36:28.125Z,35.42
2023-01-07T21:38:58.936Z,35.78
2023-01-07T21:41:28.376Z,35.53
2023-01-07T21:43:56.584Z,33.85
2023-01-07T21:46:24.398Z,34.53
2023-01-07T21:48:52.159Z,33.92
2023-01-07T21:51:27.981Z,31.52
2023-01-07T21:53:58.043Z,31.63
2023-01-07T21:56:30.614Z,29.73
2023-01-07T21:58:59.326Z,30.65
2023-01-07T22:01:28.818Z,31.20
2023-01-07T22:03:59.060Z,30.85
2023-01-07T22:06:32.972Z,30.95
2023-01-07T22:09:06.778Z,30.35
2023-01-07T22:11:38.736Z,29.42
2023-01-07T22:14:06.496Z,28.25
2023-01-07T22:16:34.412Z,27.65
2023-01-07T22:19:02.148Z,30.17
2023-01-07T22:21:30.994Z,28.70
2023-01-07T22:23:58.985Z,29.85
2023-01-07T22:26:26.402Z,27.83
2023-01-07T22:28:59.478Z,24.75
2023-01-07T22:31:32.292Z,26.17
2023-01-07T22:34:00.370Z,25.88
2023-01-07T22:36:34.969Z,25.17
2023-01-07T22:39:10.455Z,25.02
2023-01-07T22:41:38.059Z,25.02
2023-01-07T22:44:16.786Z,25.42
2023-01-07T22:46:48.155Z,27.70
2023-01-07T22:49:17.171Z,26.00
2023-01-07T22:51:49.136Z,28.00
2023-01-07T22:54:17.701Z,28.77
2023-01-07T22:56:45.971Z,29.42
2023-01-07T22:59:13.686Z,29.48
2023-01-07T23:01:41.159Z,29.80
2023-01-07T23:04:09.431Z,29.48
2023-01-07T23:06:36.902Z,29.35
2023-01-07T23:09:05.130Z,28.17
2023-01-07T23:11:48.328Z,26.95
2023-01-07T23:14:21.740Z,29.05
2023-01-07T23:16:51.092Z,27.40
2023-01-07T23:19:21.202Z,25.63
2023-01-07T23:21:54.120Z,27.92
2023-01-07T23:24:23.644Z,27.70
2023-01-07T23:26:54.113Z,27.10
2023-01-07T23:29:22.348Z,26.27
2023-01-07T23:31:50.582Z,26.55
2023-01-07T23:34:19.443Z,24.95
2023-01-07T23:36:46.802Z,26.33
2023-01-07T23:39:14.482Z,26.73
2023-01-07T23:41:41.817Z,26.50
2023-01-07T23:44:09.612Z,27.42
2023-01-07T23:46:37.137Z,28.48
2023-01-07T23:49:04.996Z,27.95
2023-01-07T23:51:32.351Z,29.27
2023-01-07T23:54:00.015Z,29.67
2023-01-07T23:56:27.433Z,28.95
2023-01-07T23:58:55.115Z,28.60
